Time;durP1;ratioP1;P1;durP2;ratioP2;P2;SDS_P1;SDS_P2;PMS_P1;PMS_P2;Temp;Humidity;BMP_temperature;BMP_pressure;BME280_temperature;BME280_humidity;BME280_pressure;Samples;Min_cycle;Max_cycle;Signal;HPM_P1;HPM_P2
2022/12/12 00:00:09;;;;;;;48.45;10.95;;;;;;;0.01;0.00;59042.03;5034266;28;20689;-53
2022/12/12 00:02:38;;;;;;;49.72;11.57;;;;;;;0.01;0.00;59042.03;5032637;28;20032;-54
2022/12/12 00:05:06;;;;;;;47.10;10.98;;;;;;;0.01;0.00;59042.03;5034828;28;20155;-53
2022/12/12 00:07:31;;;;;;;36.05;10.18;;;;;;;0.01;0.00;59042.03;5034135;28;20049;-54
2022/12/12 00:09:56;;;;;;;42.28;10.18;;;;;;;0.01;0.00;59042.03;5035490;28;20131;-53
2022/12/12 00:12:22;;;;;;;34.90;8.60;;;;;;;0.01;0.00;59042.03;5034151;28;20033;-52
2022/12/12 00:14:47;;;;;;;50.22;10.15;;;;;;;0.01;0.00;59042.03;5034452;28;20028;-52
2022/12/12 00:17:12;;;;;;;43.03;9.80;;;;;;;0.01;0.00;59042.03;5033052;28;20859;-53
2022/12/12 00:19:38;;;;;;;42.25;9.95;;;;;;;0.01;0.00;59042.03;5034606;28;20116;-52
2022/12/12 00:22:03;;;;;;;52.45;10.98;;;;;;;0.01;0.00;59042.03;5033820;28;20041;-55
2022/12/12 00:24:28;;;;;;;45.55;10.90;;;;;;;0.01;0.00;59042.03;5034869;28;20147;-55
2022/12/12 00:26:54;;;;;;;63.20;11.73;;;;;;;0.01;0.00;59042.03;5034153;28;20819;-53
2022/12/12 00:29:19;;;;;;;50.97;10.88;;;;;;;0.01;0.00;59042.03;5034981;28;20214;-52
2022/12/12 00:31:45;;;;;;;55.88;12.02;;;;;;;0.01;0.00;59042.03;5032455;28;20041;-54
2022/12/12 00:34:10;;;;;;;50.08;10.93;;;;;;;0.01;0.00;59042.03;5034103;28;20047;-54
2022/12/12 00:36:35;;;;;;;58.25;12.38;;;;;;;0.01;0.00;59042.03;5034006;28;20124;-54
2022/12/12 00:39:01;;;;;;;51.63;11.57;;;;;;;0.01;0.00;59042.03;5034486;28;20793;-52
2022/12/12 00:41:27;;;;;;;48.22;10.77;;;;;;;0.01;0.00;59042.03;5033835;28;20040;-52
2022/12/12 00:43:52;;;;;;;47.88;10.93;;;;;;;0.01;0.00;59042.03;5034701;28;20033;-55
2022/12/12 00:46:22;;;;;;;53.03;11.60;;;;;;;0.01;0.00;59042.03;5032293;28;20029;-53
2022/12/12 00:48:47;;;;;;;51.30;11.38;;;;;;;0.01;0.00;59042.03;5032686;28;20040;-52
2022/12/12 00:51:17;;;;;;;66.70;12.52;;;;;;;0.01;0.00;59042.03;5033366;28;20336;-53
2022/12/12 00:53:42;;;;;;;57.08;10.70;;;;;;;0.01;0.00;59042.03;5034049;28;20107;-53
2022/12/12 00:56:08;;;;;;;55.63;10.32;;;;;;;0.01;0.00;59042.03;5034169;28;20037;-53
2022/12/12 00:58:33;;;;;;;56.97;12.50;;;;;;;0.01;0.00;59042.03;5034327;28;20383;-52
2022/12/12 01:01:06;;;;;;;62.90;12.13;;;;;;;0.01;0.00;59042.03;5032303;28;20195;-52
2022/12/12 01:03:32;;;;;;;54.15;11.95;;;;;;;0.01;0.00;59042.03;5032816;28;20112;-52
2022/12/12 01:05:58;;;;;;;54.50;11.40;;;;;;;0.01;0.00;59042.03;5034054;28;20033;-51
2022/12/12 01:08:23;;;;;;;56.47;12.52;;;;;;;0.01;0.00;59042.03;5034255;28;20033;-52
2022/12/12 01:10:49;;;;;;;64.55;12.48;;;;;;;0.01;0.00;59042.03;5033908;28;20826;-53
2022/12/12 01:13:14;;;;;;;56.50;12.25;;;;;;;0.01;0.00;59042.03;5033963;28;20025;-53
2022/12/12 01:15:40;;;;;;;50.10;11.00;;;;;;;0.01;0.00;59042.03;5033091;28;20048;-52
2022/12/12 01:18:05;;;;;;;62.03;12.43;;;;;;;0.01;0.00;59042.03;5032563;28;20059;-53
2022/12/12 01:20:31;;;;;;;56.83;13.10;;;;;;;0.01;0.00;59042.03;5033570;28;20628;-54
2022/12/12 01:22:56;;;;;;;55.78;12.55;;;;;;;0.01;0.00;59042.03;5034014;28;20029;-53
2022/12/12 01:25:22;;;;;;;52.47;12.48;;;;;;;0.01;0.00;59042.03;5033413;28;20390;-55
2022/12/12 01:27:47;;;;;;;47.10;12.13;;;;;;;0.01;0.00;59042.03;5034231;28;20090;-55
2022/12/12 01:30:15;;;;;;;47.78;12.10;;;;;;;0.01;0.00;59042.03;5032855;28;20017;-54
2022/12/12 01:32:41;;;;;;;60.17;12.63;;;;;;;0.01;0.00;59042.03;5032175;28;20044;-54
2022/12/12 01:35:07;;;;;;;55.38;12.63;;;;;;;0.01;0.00;59042.03;5034572;28;20112;-56
2022/12/12 01:37:37;;;;;;;52.78;12.43;;;;;;;0.01;0.00;59042.03;5033277;28;20061;-52
2022/12/12 01:40:05;;;;;;;62.15;14.02;;;;;;;0.01;0.00;59042.03;5033925;28;20841;-55
2022/12/12 01:42:31;;;;;;;55.60;12.80;;;;;;;0.01;0.00;59042.03;5033306;28;20078;-55
2022/12/12 01:44:57;;;;;;;65.82;14.00;;;;;;;0.01;0.00;59042.03;5033323;28;20482;-54
2022/12/12 01:47:23;;;;;;;50.00;12.93;;;;;;;0.01;0.00;59042.03;5031999;28;20041;-52
2022/12/12 01:49:50;;;;;;;66.03;13.88;;;;;;;0.01;0.00;59042.03;5015159;28;20021;-53
2022/12/12 01:52:20;;;;;;;66.20;14.77;;;;;;;0.01;0.00;59042.03;5033214;28;20122;-53
2022/12/12 01:54:50;;;;;;;65.45;14.07;;;;;;;0.01;0.00;59042.03;5033335;28;20537;-53
2022/12/12 01:57:30;;;;;;;53.35;12.63;;;;;;;0.01;0.00;59042.03;5033303;28;20094;-54
2022/12/12 01:59:57;;;;;;;60.63;14.63;;;;;;;0.01;0.00;59042.03;5034777;28;20657;-53
2022/12/12 02:02:23;;;;;;;46.22;12.52;;;;;;;0.01;0.00;59042.03;5034702;28;20474;-52
2022/12/12 02:04:48;;;;;;;52.75;13.98;;;;;;;0.01;0.00;59042.03;5036948;28;20040;-52
2022/12/12 02:07:16;;;;;;;54.95;13.70;;;;;;;0.01;0.00;59042.03;5037615;28;20056;-55
2022/12/12 02:09:42;;;;;;;50.35;14.18;;;;;;;0.01;0.00;59042.03;5035355;28;20040;-53
2022/12/12 02:12:12;;;;;;;55.67;14.35;;;;;;;0.01;0.00;59042.03;5037308;28;20033;-53
2022/12/12 02:14:41;;;;;;;49.40;13.65;;;;;;;0.01;0.00;59042.03;5040003;28;20029;-53
2022/12/12 02:17:17;;;;;;;61.92;14.60;;;;;;;0.01;0.00;59042.03;5038863;28;20135;-55
2022/12/12 02:19:53;;;;;;;45.65;12.27;;;;;;;0.01;0.00;59042.03;5039210;28;20437;-55
2022/12/12 02:22:30;;;;;;;59.95;13.55;;;;;;;0.01;0.00;59042.03;5038339;28;20040;-54
2022/12/12 02:25:20;;;;;;;43.78;10.95;;;;;;;0.01;0.00;59042.03;5039526;28;20151;-53
2022/12/12 02:28:00;;;;;;;48.20;14.00;;;;;;;0.01;0.00;59042.03;5038197;28;20075;-53
2022/12/12 02:30:47;;;;;;;42.80;12.70;;;;;;;0.01;0.00;59042.03;5039036;28;20136;-53
2022/12/12 02:33:15;;;;;;;58.25;13.75;;;;;;;0.01;0.00;59042.03;5039516;28;20455;-55
2022/12/12 02:35:44;;;;;;;59.30;14.70;;;;;;;0.01;0.00;59042.03;5039138;28;20041;-52
2022/12/12 02:38:27;;;;;;;43.55;12.70;;;;;;;0.01;0.00;59042.03;5020777;28;20514;-53
2022/12/12 02:41:05;;;;;;;52.78;13.73;;;;;;;0.01;0.00;59042.03;5038705;28;20691;-53
2022/12/12 02:43:49;;;;;;;55.17;14.27;;;;;;;0.01;0.00;59042.03;5038974;28;20572;-54
2022/12/12 02:46:31;;;;;;;41.78;12.43;;;;;;;0.01;0.00;59042.03;5038940;28;20041;-53
2022/12/12 02:49:23;;;;;;;57.90;14.98;;;;;;;0.01;0.00;59042.03;5039746;28;20482;-54
2022/12/12 02:51:52;;;;;;;46.07;12.87;;;;;;;0.01;0.00;59042.03;5038438;28;20056;-52
2022/12/12 02:54:19;;;;;;;50.30;13.80;;;;;;;0.01;0.00;59042.03;5039280;28;20762;-52
2022/12/12 02:56:46;;;;;;;49.50;13.70;;;;;;;0.01;0.00;59042.03;5038392;28;20536;-54
2022/12/12 02:59:33;;;;;;;51.00;13.18;;;;;;;0.01;0.00;59042.03;5039435;28;20037;-55
2022/12/12 03:02:37;;;;;;;42.78;10.63;;;;;;;0.01;0.00;59042.03;5038804;28;20037;-54
2022/12/12 03:08:50;;;;;;;39.53;8.73;;;;;;;0.01;0.00;59042.03;5038691;28;20052;-54
2022/12/12 03:11:44;;;;;;;30.58;7.43;;;;;;;0.01;0.00;59042.03;5037743;28;20045;-54
2022/12/12 03:14:23;;;;;;;38.65;8.85;;;;;;;0.01;0.00;59042.03;5039536;28;20078;-55
2022/12/12 03:17:09;;;;;;;46.92;8.60;;;;;;;0.01;0.00;59042.03;5037778;28;20049;-55
2022/12/12 03:19:41;;;;;;;40.60;8.32;;;;;;;0.01;0.00;59042.03;5038831;28;20033;-52
2022/12/12 03:22:34;;;;;;;32.50;7.68;;;;;;;0.01;0.00;59042.03;5038326;28;20584;-53
2022/12/12 03:25:19;;;;;;;30.98;6.40;;;;;;;0.01;0.00;59042.03;5038727;28;20029;-53
2022/12/12 03:27:57;;;;;;;38.53;7.45;;;;;;;0.01;0.00;59042.03;5036753;28;20044;-52
2022/12/12 03:30:23;;;;;;;37.10;7.75;;;;;;;0.01;0.00;59042.03;5036071;28;20025;-54
2022/12/12 03:32:52;;;;;;;35.20;6.70;;;;;;;0.01;0.00;59042.03;5036358;28;20775;-52
2022/12/12 03:35:24;;;;;;;29.98;6.75;;;;;;;0.01;0.00;59042.03;5038664;28;20132;-53
2022/12/12 03:37:52;;;;;;;;;;;;;;;0.01;0.00;59042.03;5039010;28;20537;-55
2022/12/12 03:40:32;;;;;;;35.88;7.47;;;;;;;0.01;0.00;59042.03;5038637;28;19940;-53
2022/12/12 03:43:14;;;;;;;39.10;8.30;;;;;;;0.01;0.00;59042.03;5037993;28;20025;-55
2022/12/12 03:46:06;;;;;;;32.58;7.47;;;;;;;0.01;0.00;59042.03;5038253;28;20037;-52
2022/12/12 03:49:01;;;;;;;31.75;7.22;;;;;;;0.01;0.00;59042.03;5038621;28;20854;-54
2022/12/12 03:51:29;;;;;;;34.83;7.65;;;;;;;0.01;0.00;59042.03;5037606;28;20040;-53
2022/12/12 03:54:06;;;;;;;36.90;7.63;;;;;;;0.01;0.00;59042.03;5037963;28;20025;-56
2022/12/12 03:56:54;;;;;;;33.28;7.20;;;;;;;0.01;0.00;59042.03;5037408;28;20068;-56
2022/12/12 03:59:35;;;;;;;43.85;8.48;;;;;;;0.01;0.00;59042.03;5026271;28;20067;-55
2022/12/12 04:02:06;;;;;;;31.38;7.50;;;;;;;0.01;0.00;59042.03;5037600;28;20383;-54
2022/12/12 04:04:54;;;;;;;34.97;8.47;;;;;;;0.01;0.00;59042.03;5037955;28;20049;-54
2022/12/12 04:07:31;;;;;;;46.65;9.73;;;;;;;0.01;0.00;59042.03;5037766;28;20120;-54
2022/12/12 04:13:10;;;;;;;39.70;8.10;;;;;;;0.01;0.00;59042.03;5037856;28;20048;-53
2022/12/12 04:15:46;;;;;;;33.15;7.88;;;;;;;0.01;0.00;59042.03;5037320;28;20039;-54
2022/12/12 04:18:46;;;;;;;33.58;8.38;;;;;;;0.01;0.00;59042.03;5037651;28;20087;-54
2022/12/12 04:24:14;;;;;;;36.15;7.93;;;;;;;0.01;0.00;59042.03;5037674;28;20068;-54
2022/12/12 04:26:43;;;;;;;47.47;9.85;;;;;;;0.01;0.00;59042.03;5037080;28;20611;-55
2022/12/12 04:29:18;;;;;;;39.92;8.77;;;;;;;0.01;0.00;59042.03;5037997;28;20560;-53
2022/12/12 04:31:59;;;;;;;46.08;9.70;;;;;;;0.01;0.00;59042.03;5036709;28;20067;-54
2022/12/12 04:34:37;;;;;;;32.92;7.88;;;;;;;0.01;0.00;59042.03;5037890;28;20909;-52
2022/12/12 04:37:05;;;;;;;28.38;7.10;;;;;;;0.01;0.00;59042.03;5037318;28;20073;-54
2022/12/12 04:39:35;;;;;;;41.42;9.55;;;;;;;0.01;0.00;59042.03;5037879;28;20028;-54
2022/12/12 04:42:04;;;;;;;41.50;9.45;;;;;;;0.01;0.00;59042.03;5036358;28;20139;-53
2022/12/12 04:44:33;;;;;;;38.72;8.73;;;;;;;0.01;0.00;59042.03;5037568;28;20127;-54
2022/12/12 04:47:01;;;;;;;32.10;8.10;;;;;;;0.01;0.00;59042.03;5036418;28;20041;-53
2022/12/12 04:49:30;;;;;;;44.42;8.98;;;;;;;0.01;0.00;59042.03;5037758;28;20028;-55
2022/12/12 04:52:04;;;;;;;40.35;8.73;;;;;;;0.01;0.00;59042.03;5034664;28;20101;-53
2022/12/12 04:54:49;;;;;;;36.40;8.30;;;;;;;0.01;0.00;59042.03;5037321;28;20029;-55
2022/12/12 04:57:22;;;;;;;45.05;9.00;;;;;;;0.01;0.00;59042.03;5036973;28;20037;-56
2022/12/12 04:59:48;;;;;;;40.95;8.70;;;;;;;0.01;0.00;59042.03;5037088;28;20781;-55
2022/12/12 05:02:19;;;;;;;37.58;8.40;;;;;;;0.01;0.00;59042.03;5036558;28;20048;-53
2022/12/12 05:05:13;;;;;;;38.63;7.35;;;;;;;0.01;0.00;59042.03;5037672;28;20032;-54
2022/12/12 05:07:42;;;;;;;35.88;8.07;;;;;;;0.01;0.00;59042.03;5037252;28;20053;-53
2022/12/12 05:10:12;;;;;;;40.25;7.30;;;;;;;0.01;0.00;59042.03;5036888;28;20908;-53
2022/12/12 05:12:49;;;;;;;36.55;6.68;;;;;;;0.01;0.00;59042.03;5036728;28;20077;-53
2022/12/12 05:15:16;;;;;;;40.88;8.48;;;;;;;0.01;0.00;59042.03;5036564;28;20040;-56
2022/12/12 05:18:06;;;;;;;32.40;7.18;;;;;;;0.01;0.00;59042.03;5037142;28;20057;-53
2022/12/12 05:20:32;;;;;;;38.60;7.65;;;;;;;0.01;0.00;59042.03;5037118;28;20033;-54
2022/12/12 05:22:57;;;;;;;35.30;6.53;;;;;;;0.01;0.00;59042.03;5036430;28;20079;-55
2022/12/12 05:25:23;;;;;;;30.60;5.97;;;;;;;0.01;0.00;59042.03;5036457;28;20506;-54
2022/12/12 05:27:48;;;;;;;27.65;5.63;;;;;;;0.01;0.00;59042.03;5037089;28;20021;-54
2022/12/12 05:30:14;;;;;;;36.25;5.75;;;;;;;0.01;0.00;59042.03;5036565;28;20040;-54
2022/12/12 05:32:39;;;;;;;32.38;6.32;;;;;;;0.01;0.00;59042.03;5036398;28;20032;-52
2022/12/12 05:35:06;;;;;;;31.35;6.22;;;;;;;0.01;0.00;59042.03;5022471;28;20035;-55
2022/12/12 05:37:32;;;;;;;25.00;5.13;;;;;;;0.01;0.00;59042.03;5040315;28;20041;-52
2022/12/12 05:39:57;;;;;;;26.95;6.05;;;;;;;0.01;0.00;59042.03;5041309;28;20028;-53
2022/12/12 05:42:23;;;;;;;42.60;8.50;;;;;;;0.01;0.00;59042.03;5039592;28;20114;-53
2022/12/12 05:44:48;;;;;;;45.00;8.90;;;;;;;0.01;0.00;59042.03;5040749;28;20040;-53
2022/12/12 05:47:14;;;;;;;34.40;8.02;;;;;;;0.01;0.00;59042.03;5040012;28;20128;-53
2022/12/12 05:49:39;;;;;;;36.17;8.00;;;;;;;0.01;0.00;59042.03;5040520;28;20959;-55
2022/12/12 05:52:05;;;;;;;35.83;8.48;;;;;;;0.01;0.00;59042.03;5039522;28;20571;-53
2022/12/12 05:54:30;;;;;;;40.45;9.00;;;;;;;0.01;0.00;59042.03;5040429;28;20112;-55
2022/12/12 05:56:56;;;;;;;39.17;9.18;;;;;;;0.01;0.00;59042.03;5039994;28;20045;-54
2022/12/12 05:59:21;;;;;;;50.47;10.13;;;;;;;0.01;0.00;59042.03;5040583;28;20056;-53
2022/12/12 06:01:47;;;;;;;41.22;9.18;;;;;;;0.01;0.00;59042.03;5039183;28;20043;-53
2022/12/12 06:04:12;;;;;;;35.38;8.43;;;;;;;0.01;0.00;59042.03;5040724;28;20106;-54
2022/12/12 06:06:37;;;;;;;51.05;9.35;;;;;;;0.01;0.00;59042.03;5039706;28;20477;-52
2022/12/12 06:09:03;;;;;;;36.25;8.82;;;;;;;0.01;0.00;59042.03;5040787;28;20431;-51
2022/12/12 06:11:28;;;;;;;46.22;8.90;;;;;;;0.01;0.00;59042.03;5039633;28;20075;-53
2022/12/12 06:13:54;;;;;;;59.22;12.48;;;;;;;0.01;0.00;59042.03;5039708;28;20787;-53
2022/12/12 06:16:19;;;;;;;41.47;9.63;;;;;;;0.01;0.00;59042.03;5039828;28;20080;-54
2022/12/12 06:18:52;;;;;;;45.67;9.82;;;;;;;0.01;0.00;59042.03;5040138;28;20044;-52
2022/12/12 06:21:18;;;;;;;36.00;8.43;;;;;;;0.01;0.00;59042.03;5039001;28;20139;-54
2022/12/12 06:23:43;;;;;;;41.38;8.70;;;;;;;0.01;0.00;59042.03;5040266;28;20360;-54
2022/12/12 06:26:12;;;;;;;30.42;7.90;;;;;;;0.01;0.00;59042.03;5025001;28;20048;-53
2022/12/12 06:28:38;;;;;;;39.17;8.15;;;;;;;0.01;0.00;59042.03;5039504;28;20031;-52
2022/12/12 06:31:04;;;;;;;34.40;7.78;;;;;;;0.01;0.00;59042.03;5038726;28;20037;-56
2022/12/12 06:33:31;;;;;;;39.42;9.15;;;;;;;0.01;0.00;59042.03;5039705;28;20016;-54
2022/12/12 06:36:15;;;;;;;39.97;8.88;;;;;;;0.01;0.00;59042.03;5038511;28;20032;-54
2022/12/12 06:38:41;;;;;;;41.22;8.85;;;;;;;0.01;0.00;59042.03;5039310;28;20149;-55
2022/12/12 06:41:09;;;;;;;37.97;9.00;;;;;;;0.01;0.00;59042.03;5039106;28;20047;-54
2022/12/12 06:43:34;;;;;;;34.58;7.63;;;;;;;0.01;0.00;59042.03;5039389;28;20025;-53
2022/12/12 06:46:02;;;;;;;41.17;10.30;;;;;;;0.01;0.00;59042.03;5038139;28;20040;-55
2022/12/12 06:48:30;;;;;;;35.58;8.98;;;;;;;0.01;0.00;59042.03;5039393;28;20028;-53
2022/12/12 06:50:55;;;;;;;37.40;8.73;;;;;;;0.01;0.00;59042.03;5038541;28;20145;-56
2022/12/12 06:53:21;;;;;;;40.17;9.00;;;;;;;0.01;0.00;59042.03;5039154;28;20028;-54
2022/12/12 06:55:46;;;;;;;30.85;7.55;;;;;;;0.01;0.00;59042.03;5038702;28;20094;-55
2022/12/12 06:58:11;;;;;;;42.17;8.63;;;;;;;0.01;0.00;59042.03;5021067;28;20052;-55
2022/12/12 07:00:37;;;;;;;41.58;9.20;;;;;;;0.01;0.00;59042.03;5039012;28;20041;-54
2022/12/12 07:03:02;;;;;;;31.77;7.97;;;;;;;0.01;0.00;59042.03;5039064;28;20511;-56
2022/12/12 07:05:28;;;;;;;34.55;7.80;;;;;;;0.01;0.00;59042.03;5038110;28;20045;-56
2022/12/12 07:07:53;;;;;;;34.80;7.95;;;;;;;0.01;0.00;59042.03;5039155;28;20044;-55
2022/12/12 07:10:18;;;;;;;32.60;7.88;;;;;;;0.01;0.00;59042.03;5038560;28;20033;-55
2022/12/12 07:12:44;;;;;;;29.70;7.85;;;;;;;0.01;0.00;59042.03;5038852;28;20027;-56
2022/12/12 07:15:10;;;;;;;38.03;8.65;;;;;;;0.01;0.00;59042.03;5038646;28;20028;-53
2022/12/12 07:17:36;;;;;;;37.80;8.82;;;;;;;0.01;0.00;59042.03;5038676;28;20425;-53
2022/12/12 07:20:02;;;;;;;29.60;7.97;;;;;;;0.01;0.00;59042.03;5039292;28;20028;-55
2022/12/12 07:22:28;;;;;;;36.17;8.68;;;;;;;0.01;0.00;59042.03;5038060;28;20090;-57
2022/12/12 07:24:53;;;;;;;45.50;12.38;;;;;;;0.01;0.00;59042.03;5038831;28;20663;-54
2022/12/12 07:27:18;;;;;;;39.13;10.85;;;;;;;0.01;0.00;59042.03;5038111;28;20033;-53
2022/12/12 07:29:44;;;;;;;50.90;11.15;;;;;;;0.01;0.00;59042.03;5038413;28;20151;-54
2022/12/12 07:32:09;;;;;;;44.90;11.70;;;;;;;0.01;0.00;59042.03;5038254;28;20041;-54
2022/12/12 07:34:35;;;;;;;52.75;14.10;;;;;;;0.01;0.00;59042.03;5038759;28;20628;-53
2022/12/12 07:37:00;;;;;;;36.92;10.70;;;;;;;0.01;0.00;59042.03;5038414;28;20048;-56
2022/12/12 07:39:29;;;;;;;42.67;11.57;;;;;;;0.01;0.00;59042.03;5038836;28;20021;-55
2022/12/12 07:41:54;;;;;;;39.90;11.13;;;;;;;0.01;0.00;59042.03;5037482;28;20044;-56
2022/12/12 07:44:20;;;;;;;36.50;10.52;;;;;;;0.01;0.00;59042.03;5038173;28;20032;-53
2022/12/12 07:46:45;;;;;;;58.47;9.63;;;;;;;0.01;0.00;59042.03;5037959;28;20041;-55
2022/12/12 07:49:10;;;;;;;36.83;9.30;;;;;;;0.01;0.00;59042.03;5038528;28;20426;-52
2022/12/12 07:51:37;;;;;;;40.15;10.07;;;;;;;0.01;0.00;59042.03;5037573;28;20037;-52
2022/12/12 07:54:03;;;;;;;38.45;10.32;;;;;;;0.01;0.00;59042.03;5038022;28;20778;-53
2022/12/12 07:56:28;;;;;;;44.53;10.75;;;;;;;0.01;0.00;59042.03;5038068;28;20029;-54
2022/12/12 07:58:54;;;;;;;45.97;10.80;;;;;;;0.01;0.00;59042.03;5037864;28;20529;-54
2022/12/12 08:01:22;;;;;;;35.25;10.77;;;;;;;0.01;0.00;59042.03;5036933;28;20494;-53
2022/12/12 08:03:48;;;;;;;40.33;10.38;;;;;;;0.01;0.00;59042.03;5037800;28;20570;-54
2022/12/12 08:06:15;;;;;;;36.35;9.80;;;;;;;0.01;0.00;59042.03;5037882;28;20128;-53
2022/12/12 08:08:42;;;;;;;35.28;9.80;;;;;;;0.01;0.00;59042.03;5019668;28;20033;-55
2022/12/12 08:11:10;;;;;;;38.65;9.70;;;;;;;0.01;0.00;59042.03;5037323;28;20036;-54
2022/12/12 08:13:37;;;;;;;39.13;10.00;;;;;;;0.01;0.00;59042.03;5037690;28;20541;-53
2022/12/12 08:16:04;;;;;;;47.65;11.90;;;;;;;0.01;0.00;59042.03;5019998;28;20045;-54
2022/12/12 08:18:30;;;;;;;44.03;11.50;;;;;;;0.01;0.00;59042.03;5037811;28;20090;-55
2022/12/12 08:20:55;;;;;;;53.90;12.13;;;;;;;0.01;0.00;59042.03;5037023;28;20799;-53
2022/12/12 08:23:21;;;;;;;41.90;11.60;;;;;;;0.01;0.00;59042.03;5037415;28;20147;-54
2022/12/12 08:25:46;;;;;;;43.50;11.68;;;;;;;0.01;0.00;59042.03;5037586;28;20145;-56
2022/12/12 08:28:11;;;;;;;46.90;12.88;;;;;;;0.01;0.00;59042.03;5037675;28;20707;-53
2022/12/12 08:30:37;;;;;;;45.17;11.05;;;;;;;0.01;0.00;59042.03;5037315;28;20041;-54
2022/12/12 08:33:03;;;;;;;45.47;12.40;;;;;;;0.01;0.00;59042.03;5037272;28;20025;-53
2022/12/12 08:35:31;;;;;;;46.83;12.85;;;;;;;0.01;0.00;59042.03;5036848;28;20055;-53
2022/12/12 08:37:57;;;;;;;43.33;12.05;;;;;;;0.01;0.00;59042.03;5037760;28;20037;-53
2022/12/12 08:40:23;;;;;;;42.30;11.65;;;;;;;0.01;0.00;59042.03;5036488;28;20187;-55
2022/12/12 08:42:48;;;;;;;45.30;12.60;;;;;;;0.01;0.00;59042.03;5037254;28;20036;-53
2022/12/12 08:45:14;;;;;;;36.78;11.30;;;;;;;0.01;0.00;59042.03;5036956;28;20253;-55
2022/12/12 08:47:39;;;;;;;42.63;11.68;;;;;;;0.01;0.00;59042.03;5037396;28;20276;-53
2022/12/12 08:50:05;;;;;;;41.13;12.05;;;;;;;0.01;0.00;59042.03;5036445;28;20029;-54
2022/12/12 08:52:31;;;;;;;42.67;10.70;;;;;;;0.01;0.00;59042.03;5024549;28;20435;-53
2022/12/12 08:54:56;;;;;;;39.47;11.35;;;;;;;0.01;0.00;59042.03;5037187;28;20506;-53
2022/12/12 08:57:22;;;;;;;35.97;10.27;;;;;;;0.01;0.00;59042.03;5036492;28;20147;-52
2022/12/12 08:59:47;;;;;;;36.97;10.10;;;;;;;0.01;0.00;59042.03;5036879;28;20302;-53
2022/12/12 09:02:13;;;;;;;42.05;11.15;;;;;;;0.01;0.00;59042.03;5036474;28;20600;-52
2022/12/12 09:04:38;;;;;;;52.72;14.02;;;;;;;0.01;0.00;59042.03;5036933;28;20502;-52
2022/12/12 09:07:05;;;;;;;37.55;11.65;;;;;;;0.01;0.00;59042.03;5019173;28;20147;-53
2022/12/12 09:09:31;;;;;;;39.03;13.18;;;;;;;0.01;0.00;59042.03;5038302;28;20259;-55
2022/12/12 09:11:57;;;;;;;39.72;12.93;;;;;;;0.01;0.00;59042.03;5040417;28;20041;-54
2022/12/12 09:14:22;;;;;;;39.72;12.80;;;;;;;0.01;0.00;59042.03;5023948;28;20468;-54
2022/12/12 09:16:48;;;;;;;43.85;13.00;;;;;;;0.01;0.00;59042.03;5040852;28;20041;-55
2022/12/12 09:19:14;;;;;;;48.78;13.05;;;;;;;0.01;0.00;59042.03;5041456;28;20060;-55
2022/12/12 09:21:39;;;;;;;40.85;13.38;;;;;;;0.01;0.00;59042.03;5040604;28;20087;-53
2022/12/12 09:24:05;;;;;;;41.92;13.90;;;;;;;0.01;0.00;59042.03;5041085;28;20028;-53
2022/12/12 09:26:31;;;;;;;42.30;13.65;;;;;;;0.01;0.00;59042.03;5041099;28;20037;-52
2022/12/12 09:28:56;;;;;;;48.90;13.18;;;;;;;0.01;0.00;59042.03;5040745;28;20027;-54
2022/12/12 09:31:21;;;;;;;35.22;11.38;;;;;;;0.01;0.00;59042.03;5040762;28;20052;-53
2022/12/12 09:33:47;;;;;;;31.05;9.50;;;;;;;0.01;0.00;59042.03;5041540;28;20603;-53
2022/12/12 09:36:12;;;;;;;40.38;11.98;;;;;;;0.01;0.00;59042.03;5040195;28;20383;-53
2022/12/12 09:38:38;;;;;;;44.60;12.60;;;;;;;0.01;0.00;59042.03;5041086;28;20232;-54
2022/12/12 09:41:25;;;;;;;39.63;11.90;;;;;;;0.01;0.00;59042.03;5040274;28;20653;-54
2022/12/12 09:43:57;;;;;;;37.95;11.52;;;;;;;0.01;0.00;59042.03;5040620;28;20079;-51
2022/12/12 09:46:34;;;;;;;40.93;11.07;;;;;;;0.01;0.00;59042.03;5040338;28;20848;-53
2022/12/12 09:49:08;;;;;;;38.47;12.02;;;;;;;0.01;0.00;59042.03;5040945;28;20069;-53
2022/12/12 09:51:35;;;;;;;39.50;12.05;;;;;;;0.01;0.00;59042.03;5040252;28;20041;-52
2022/12/12 09:54:00;;;;;;;32.22;10.13;;;;;;;0.01;0.00;59042.03;5041287;28;20033;-53
2022/12/12 09:57:00;;;;;;;39.17;11.63;;;;;;;0.01;0.00;59042.03;5039878;28;20071;-53
2022/12/12 09:59:41;;;;;;;41.97;11.80;;;;;;;0.01;0.00;59042.03;5040866;28;20033;-53
2022/12/12 10:02:32;;;;;;;38.42;11.35;;;;;;;0.01;0.00;59042.03;5039610;28;20561;-53
2022/12/12 10:05:07;;;;;;;37.40;12.60;;;;;;;0.01;0.00;59042.03;5040521;28;20136;-55
2022/12/12 10:07:40;;;;;;;36.45;12.05;;;;;;;0.01;0.00;59042.03;5040134;28;20818;-52
2022/12/12 10:10:33;;;;;;;38.08;13.30;;;;;;;0.01;0.00;59042.03;5039237;28;20131;-53
2022/12/12 10:13:02;;;;;;;39.83;12.77;;;;;;;0.01;0.00;59042.03;5040053;28;20605;-54
2022/12/12 10:15:34;;;;;;;49.00;13.25;;;;;;;0.01;0.00;59042.03;5038317;28;20045;-52
2022/12/12 10:18:05;;;;;;;42.50;13.35;;;;;;;0.01;0.00;59042.03;5040519;28;20684;-55
2022/12/12 10:20:36;;;;;;;42.70;12.63;;;;;;;0.01;0.00;59042.03;5039541;28;20033;-54
2022/12/12 10:23:17;;;;;;;39.05;13.48;;;;;;;0.01;0.00;59042.03;5040125;28;20604;-54
2022/12/12 10:25:51;;;;;;;48.42;13.68;;;;;;;0.01;0.00;59042.03;5039498;28;20524;-52
2022/12/12 10:28:19;;;;;;;36.40;12.13;;;;;;;0.01;0.00;59042.03;5040335;28;20032;-52
2022/12/12 10:31:12;;;;;;;49.63;14.00;;;;;;;0.01;0.00;59042.03;5039287;28;20037;-52
2022/12/12 10:33:50;;;;;;;37.47;11.27;;;;;;;0.01;0.00;59042.03;5039228;28;20025;-51
2022/12/12 10:36:15;;;;;;;41.15;12.43;;;;;;;0.01;0.00;59042.03;5039435;28;20048;-52
2022/12/12 10:38:58;;;;;;;36.00;11.63;;;;;;;0.01;0.00;59042.03;5039507;28;20025;-56
2022/12/12 10:41:50;;;;;;;40.80;13.40;;;;;;;0.01;0.00;59042.03;5038575;28;20033;-52
2022/12/12 10:44:18;;;;;;;36.72;11.77;;;;;;;0.01;0.00;59042.03;5039825;28;20028;-53
2022/12/12 10:46:53;;;;;;;43.05;13.20;;;;;;;0.01;0.00;59042.03;5039193;28;20052;-53
2022/12/12 10:49:21;;;;;;;33.15;8.02;;;;;;;0.01;0.00;59042.03;5039653;28;20667;-52
2022/12/12 10:51:49;;;;;;;34.20;8.55;;;;;;;0.01;0.00;59042.03;5020451;28;20080;-54
2022/12/12 10:54:24;;;;;;;32.63;10.13;;;;;;;0.01;0.00;59042.03;5039896;28;20025;-52
2022/12/12 10:57:12;;;;;;;35.28;9.93;;;;;;;0.01;0.00;59042.03;5038865;28;20862;-53
2022/12/12 10:59:40;;;;;;;27.25;8.95;;;;;;;0.01;0.00;59042.03;5010137;28;20804;-52
2022/12/12 11:02:38;;;;;;;31.42;10.10;;;;;;;0.01;0.00;59042.03;5038390;28;20033;-53
2022/12/12 11:05:08;;;;;;;38.83;11.43;;;;;;;0.01;0.00;59042.03;5038928;28;20036;-55
2022/12/12 11:07:39;;;;;;;36.25;10.38;;;;;;;0.01;0.00;59042.03;5039247;28;20037;-53
2022/12/12 11:10:21;;;;;;;37.25;10.90;;;;;;;0.01;0.00;59042.03;5038293;28;20025;-53
2022/12/12 11:13:02;;;;;;;38.22;11.57;;;;;;;0.01;0.00;59042.03;5038873;28;20013;-53
2022/12/12 11:15:55;;;;;;;31.95;9.65;;;;;;;0.01;0.00;59042.03;5038533;28;20047;-52
2022/12/12 11:18:23;;;;;;;34.65;10.63;;;;;;;0.01;0.00;59042.03;5028260;28;20040;-52
2022/12/12 11:21:02;;;;;;;31.98;9.60;;;;;;;0.01;0.00;59042.03;5038741;28;20037;-53
2022/12/12 11:23:29;;;;;;;32.90;11.05;;;;;;;0.01;0.00;59042.03;5038700;28;20337;-52
2022/12/12 11:26:02;;;;;;;37.35;11.90;;;;;;;0.01;0.00;59042.03;5038746;28;20122;-52
2022/12/12 11:28:33;;;;;;;42.22;12.82;;;;;;;0.01;0.00;59042.03;5038954;28;20025;-51
2022/12/12 11:31:03;;;;;;;40.65;12.20;;;;;;;0.01;0.00;59042.03;5038727;28;20032;-52
2022/12/12 11:33:56;;;;;;;34.95;10.80;;;;;;;0.01;0.00;59042.03;5038194;28;20025;-52
2022/12/12 11:36:35;;;;;;;38.95;11.40;;;;;;;0.01;0.00;59042.03;5034307;28;20045;-51
2022/12/12 11:39:11;;;;;;;29.85;7.85;;;;;;;0.01;0.00;59042.03;5038849;28;20705;-53
2022/12/12 11:42:02;;;;;;;32.63;10.02;;;;;;;0.01;0.00;59042.03;5020975;28;20094;-52
2022/12/12 11:44:35;;;;;;;30.85;9.00;;;;;;;0.01;0.00;59042.03;5038464;28;20025;-53
2022/12/12 11:47:37;;;;;;;30.27;8.80;;;;;;;0.01;0.00;59042.03;5038419;28;20040;-57
2022/12/12 11:50:16;;;;;;;25.08;6.97;;;;;;;0.01;0.00;59042.03;5039373;28;20025;-57
2022/12/12 11:52:41;;;;;;;33.85;8.13;;;;;;;0.01;0.00;59042.03;5038120;28;20161;-55
2022/12/12 11:55:14;;;;;;;28.50;8.98;;;;;;;0.01;0.00;59042.03;5038626;28;20033;-58
2022/12/12 11:58:09;;;;;;;33.67;8.80;;;;;;;0.01;0.00;59042.03;5037988;28;20278;-53
2022/12/12 12:00:59;;;;;;;30.38;8.23;;;;;;;0.01;0.00;59042.03;5037669;28;20053;-55
2022/12/12 12:03:24;;;;;;;31.67;8.93;;;;;;;0.01;0.00;59042.03;5038125;28;20119;-56